Startpagina
METAR-TAF:

METAR-TAF

Vliegvelden :

Malé, Hulhule Island, Maldiven

Malé International Airport

breedte: 04-12N, lengte: 073-32E, hoogte: 2 m

Actueel weer

Dit bericht is 1 uur en het 0 minuten geleden gemaakt, om 01:00 UTC
Wind 9 kt uit het westnoordwesten
Temperatuur 28°C
Vochtigheid 84%
Druk 1009 hPa
Zicht 10 km of meer
Verspreide wolken op 1800 ft
Gebroken wolken op 28000 ft

METAR: VRMM 260100Z 29009KT 9999 SCT018 BKN280 28/25 Q1009 NOSIG

Tijdstip: 07:00 (02:00 UTC)

Verwachting

Dit bericht is 3 uur en het 0 minuten geleden gemaakt, om 23:00 UTC
Verwachting geldig van 26 om 00 UTC tot 27 om 06 UTC
Wind 10 kt uit het westen
Zicht 10 km of meer
Weinig wolken op 1800 ft
Tijdelijke
van 26 om 00 UTC tot 26 om 06 UTC
Weinig wolken op 1800 ft, Cumulonimbus.

TAF: VRMM 252300Z 2600/2706 27010KT 9999 FEW018 TEMPO 2600/2606 FEW018CB

Waarnemingen en weersverwachtingen van meer dan 4000 vliegvelden (METAR en TAF).

De beschikbare stations zijn de gele en rode punten op de kaart.

Ga met uw muis naar het station om de naam te zien.

Klik dan om waarnemingen en weersverwachtingen te zien.

kaart wijzigen: klik op de groene knoppen met een zwart kruis om in te zoomen, op de groene knop met een streepje om uit te zoomen of op de groene pijlen voor aangrenzende kaarten.


METAR-TAF: